sensor_id;sensor_type;location;lat;lon;timestamp;P1;durP1;ratioP1;P2;durP2;ratioP2
20865;SDS011;10593;48.398;10.698;2023-06-14T00:01:44;2.70;;;2.50;;
20865;SDS011;10593;48.398;10.698;2023-06-14T00:04:13;2.70;;;2.50;;
20865;SDS011;10593;48.398;10.698;2023-06-14T00:06:42;2.83;;;2.63;;
20865;SDS011;10593;48.398;10.698;2023-06-14T00:09:10;2.77;;;2.57;;
20865;SDS011;10593;48.398;10.698;2023-06-14T00:11:40;2.70;;;2.50;;
20865;SDS011;10593;48.398;10.698;2023-06-14T00:14:06;2.23;;;2.13;;
20865;SDS011;10593;48.398;10.698;2023-06-14T00:16:32;2.77;;;2.57;;
20865;SDS011;10593;48.398;10.698;2023-06-14T00:19:00;2.40;;;2.20;;
20865;SDS011;10593;48.398;10.698;2023-06-14T00:21:29;2.90;;;2.70;;
20865;SDS011;10593;48.398;10.698;2023-06-14T00:23:57;2.43;;;2.23;;
20865;SDS011;10593;48.398;10.698;2023-06-14T00:26:24;2.80;;;2.50;;
20865;SDS011;10593;48.398;10.698;2023-06-14T00:28:51;3.40;;;2.47;;
20865;SDS011;10593;48.398;10.698;2023-06-14T00:31:20;3.43;;;2.57;;
20865;SDS011;10593;48.398;10.698;2023-06-14T00:33:45;3.00;;;2.70;;
20865;SDS011;10593;48.398;10.698;2023-06-14T00:36:11;3.47;;;2.80;;
20865;SDS011;10593;48.398;10.698;2023-06-14T00:38:37;2.80;;;2.60;;
20865;SDS011;10593;48.398;10.698;2023-06-14T00:41:03;3.17;;;2.87;;
20865;SDS011;10593;48.398;10.698;2023-06-14T00:43:29;3.03;;;2.73;;
20865;SDS011;10593;48.398;10.698;2023-06-14T00:45:54;2.60;;;2.40;;
20865;SDS011;10593;48.398;10.698;2023-06-14T00:48:20;2.90;;;2.70;;
20865;SDS011;10593;48.398;10.698;2023-06-14T00:50:47;2.90;;;2.70;;
20865;SDS011;10593;48.398;10.698;2023-06-14T00:53:17;2.90;;;2.63;;
20865;SDS011;10593;48.398;10.698;2023-06-14T00:55:45;2.53;;;2.40;;
20865;SDS011;10593;48.398;10.698;2023-06-14T00:58:12;3.00;;;2.63;;
20865;SDS011;10593;48.398;10.698;2023-06-14T01:00:39;2.90;;;2.70;;
20865;SDS011;10593;48.398;10.698;2023-06-14T01:03:04;2.97;;;2.77;;
20865;SDS011;10593;48.398;10.698;2023-06-14T01:05:31;2.77;;;2.50;;
20865;SDS011;10593;48.398;10.698;2023-06-14T01:13:37;3.13;;;2.93;;
20865;SDS011;10593;48.398;10.698;2023-06-14T01:16:08;3.97;;;2.63;;
20865;SDS011;10593;48.398;10.698;2023-06-14T01:18:35;2.90;;;2.70;;
20865;SDS011;10593;48.398;10.698;2023-06-14T01:21:01;2.77;;;2.57;;
20865;SDS011;10593;48.398;10.698;2023-06-14T01:23:31;3.20;;;2.90;;
20865;SDS011;10593;48.398;10.698;2023-06-14T01:25:58;2.63;;;2.43;;
20865;SDS011;10593;48.398;10.698;2023-06-14T01:28:27;2.90;;;2.70;;
20865;SDS011;10593;48.398;10.698;2023-06-14T01:30:59;2.90;;;2.70;;
20865;SDS011;10593;48.398;10.698;2023-06-14T01:33:28;3.17;;;2.83;;
20865;SDS011;10593;48.398;10.698;2023-06-14T01:35:56;2.77;;;2.57;;
20865;SDS011;10593;48.398;10.698;2023-06-14T01:38:24;2.97;;;2.77;;
20865;SDS011;10593;48.398;10.698;2023-06-14T01:40:52;2.83;;;2.63;;
20865;SDS011;10593;48.398;10.698;2023-06-14T01:43:21;2.50;;;2.30;;
20865;SDS011;10593;48.398;10.698;2023-06-14T01:45:48;3.20;;;2.90;;
20865;SDS011;10593;48.398;10.698;2023-06-14T01:48:17;2.67;;;2.47;;
20865;SDS011;10593;48.398;10.698;2023-06-14T01:50:45;2.70;;;2.50;;
20865;SDS011;10593;48.398;10.698;2023-06-14T01:53:10;3.00;;;2.70;;
20865;SDS011;10593;48.398;10.698;2023-06-14T01:55:36;2.40;;;2.30;;
20865;SDS011;10593;48.398;10.698;2023-06-14T01:58:02;2.53;;;2.33;;
20865;SDS011;10593;48.398;10.698;2023-06-14T02:00:29;2.63;;;2.33;;
20865;SDS011;10593;48.398;10.698;2023-06-14T02:02:55;2.93;;;2.73;;
20865;SDS011;10593;48.398;10.698;2023-06-14T02:05:21;3.23;;;2.93;;
20865;SDS011;10593;48.398;10.698;2023-06-14T02:07:47;3.27;;;3.00;;
20865;SDS011;10593;48.398;10.698;2023-06-14T02:10:12;3.03;;;2.83;;
20865;SDS011;10593;48.398;10.698;2023-06-14T02:12:39;2.77;;;2.57;;
20865;SDS011;10593;48.398;10.698;2023-06-14T02:15:05;3.47;;;2.77;;
20865;SDS011;10593;48.398;10.698;2023-06-14T02:17:32;2.57;;;2.40;;
20865;SDS011;10593;48.398;10.698;2023-06-14T02:19:58;3.10;;;2.80;;
20865;SDS011;10593;48.398;10.698;2023-06-14T02:22:24;3.50;;;3.20;;
20865;SDS011;10593;48.398;10.698;2023-06-14T02:24:50;3.30;;;2.63;;
20865;SDS011;10593;48.398;10.698;2023-06-14T02:27:15;3.40;;;3.10;;
20865;SDS011;10593;48.398;10.698;2023-06-14T02:29:41;2.70;;;2.50;;
20865;SDS011;10593;48.398;10.698;2023-06-14T02:32:07;3.57;;;2.90;;
20865;SDS011;10593;48.398;10.698;2023-06-14T02:34:33;2.73;;;2.53;;
20865;SDS011;10593;48.398;10.698;2023-06-14T02:36:59;2.73;;;2.53;;
20865;SDS011;10593;48.398;10.698;2023-06-14T02:39:28;4.13;;;3.07;;
20865;SDS011;10593;48.398;10.698;2023-06-14T02:41:54;2.70;;;2.50;;
20865;SDS011;10593;48.398;10.698;2023-06-14T02:44:20;2.57;;;2.37;;
20865;SDS011;10593;48.398;10.698;2023-06-14T02:46:53;3.17;;;2.63;;
20865;SDS011;10593;48.398;10.698;2023-06-14T02:49:20;2.80;;;2.60;;
20865;SDS011;10593;48.398;10.698;2023-06-14T02:51:47;3.07;;;2.77;;
20865;SDS011;10593;48.398;10.698;2023-06-14T02:54:13;3.37;;;3.07;;
20865;SDS011;10593;48.398;10.698;2023-06-14T02:56:39;3.63;;;2.50;;
20865;SDS011;10593;48.398;10.698;2023-06-14T02:59:05;3.00;;;2.80;;
20865;SDS011;10593;48.398;10.698;2023-06-14T03:01:32;2.50;;;2.30;;
20865;SDS011;10593;48.398;10.698;2023-06-14T03:04:05;3.70;;;2.90;;
20865;SDS011;10593;48.398;10.698;2023-06-14T03:06:34;2.73;;;2.53;;
20865;SDS011;10593;48.398;10.698;2023-06-14T03:09:01;3.50;;;3.20;;
20865;SDS011;10593;48.398;10.698;2023-06-14T03:11:29;3.47;;;3.17;;
20865;SDS011;10593;48.398;10.698;2023-06-14T03:13:56;2.80;;;2.60;;
20865;SDS011;10593;48.398;10.698;2023-06-14T03:16:22;2.93;;;2.73;;
20865;SDS011;10593;48.398;10.698;2023-06-14T03:18:52;3.07;;;2.77;;
20865;SDS011;10593;48.398;10.698;2023-06-14T03:21:18;3.00;;;2.77;;
20865;SDS011;10593;48.398;10.698;2023-06-14T03:23:45;3.30;;;3.10;;
20865;SDS011;10593;48.398;10.698;2023-06-14T03:26:12;3.27;;;2.77;;
20865;SDS011;10593;48.398;10.698;2023-06-14T03:28:46;3.07;;;2.87;;
20865;SDS011;10593;48.398;10.698;2023-06-14T03:31:12;2.90;;;2.70;;
20865;SDS011;10593;48.398;10.698;2023-06-14T03:33:39;2.73;;;2.53;;
20865;SDS011;10593;48.398;10.698;2023-06-14T03:36:05;2.90;;;2.60;;
20865;SDS011;10593;48.398;10.698;2023-06-14T03:38:34;3.00;;;2.80;;
20865;SDS011;10593;48.398;10.698;2023-06-14T03:41:00;3.00;;;2.80;;
20865;SDS011;10593;48.398;10.698;2023-06-14T03:43:26;3.40;;;3.20;;
20865;SDS011;10593;48.398;10.698;2023-06-14T03:45:52;3.60;;;3.30;;
20865;SDS011;10593;48.398;10.698;2023-06-14T03:48:18;4.00;;;2.67;;
20865;SDS011;10593;48.398;10.698;2023-06-14T03:50:44;4.10;;;2.57;;
20865;SDS011;10593;48.398;10.698;2023-06-14T03:53:09;3.40;;;3.10;;
20865;SDS011;10593;48.398;10.698;2023-06-14T03:55:35;3.37;;;3.07;;
20865;SDS011;10593;48.398;10.698;2023-06-14T03:58:02;3.47;;;3.13;;
20865;SDS011;10593;48.398;10.698;2023-06-14T04:00:28;4.37;;;3.40;;
20865;SDS011;10593;48.398;10.698;2023-06-14T04:02:54;3.63;;;3.33;;
20865;SDS011;10593;48.398;10.698;2023-06-14T04:05:20;3.20;;;2.90;;
20865;SDS011;10593;48.398;10.698;2023-06-14T04:07:46;2.83;;;2.63;;
20865;SDS011;10593;48.398;10.698;2023-06-14T04:10:14;3.00;;;2.80;;
20865;SDS011;10593;48.398;10.698;2023-06-14T04:12:41;2.87;;;2.67;;
20865;SDS011;10593;48.398;10.698;2023-06-14T04:15:07;3.70;;;2.83;;
20865;SDS011;10593;48.398;10.698;2023-06-14T04:17:34;3.30;;;3.10;;
20865;SDS011;10593;48.398;10.698;2023-06-14T04:20:00;3.00;;;2.80;;
20865;SDS011;10593;48.398;10.698;2023-06-14T04:22:29;3.47;;;3.17;;
20865;SDS011;10593;48.398;10.698;2023-06-14T04:24:56;2.90;;;2.70;;
20865;SDS011;10593;48.398;10.698;2023-06-14T04:27:23;3.60;;;3.30;;
20865;SDS011;10593;48.398;10.698;2023-06-14T04:29:51;3.17;;;2.97;;
20865;SDS011;10593;48.398;10.698;2023-06-14T04:32:22;3.23;;;2.93;;
20865;SDS011;10593;48.398;10.698;2023-06-14T04:34:54;3.93;;;3.23;;
20865;SDS011;10593;48.398;10.698;2023-06-14T04:37:21;3.40;;;3.10;;
20865;SDS011;10593;48.398;10.698;2023-06-14T04:39:50;3.20;;;3.00;;
20865;SDS011;10593;48.398;10.698;2023-06-14T04:42:16;3.93;;;2.83;;
20865;SDS011;10593;48.398;10.698;2023-06-14T04:44:45;3.27;;;3.00;;
20865;SDS011;10593;48.398;10.698;2023-06-14T04:47:12;3.60;;;3.30;;
20865;SDS011;10593;48.398;10.698;2023-06-14T04:49:39;3.10;;;2.90;;
20865;SDS011;10593;48.398;10.698;2023-06-14T04:52:05;4.10;;;3.10;;
20865;SDS011;10593;48.398;10.698;2023-06-14T04:54:32;3.43;;;3.07;;
20865;SDS011;10593;48.398;10.698;2023-06-14T04:56:58;4.03;;;3.20;;
20865;SDS011;10593;48.398;10.698;2023-06-14T04:59:24;3.33;;;3.13;;
20865;SDS011;10593;48.398;10.698;2023-06-14T05:01:50;3.30;;;3.10;;
20865;SDS011;10593;48.398;10.698;2023-06-14T05:04:18;3.27;;;3.07;;
20865;SDS011;10593;48.398;10.698;2023-06-14T05:06:44;3.40;;;3.10;;
20865;SDS011;10593;48.398;10.698;2023-06-14T05:09:11;4.33;;;3.17;;
20865;SDS011;10593;48.398;10.698;2023-06-14T05:11:39;3.40;;;3.20;;
20865;SDS011;10593;48.398;10.698;2023-06-14T05:14:05;3.47;;;3.27;;
20865;SDS011;10593;48.398;10.698;2023-06-14T05:16:31;3.33;;;3.13;;
20865;SDS011;10593;48.398;10.698;2023-06-14T05:18:57;3.33;;;3.03;;
20865;SDS011;10593;48.398;10.698;2023-06-14T05:21:23;3.83;;;3.33;;
20865;SDS011;10593;48.398;10.698;2023-06-14T05:23:49;3.30;;;3.10;;
20865;SDS011;10593;48.398;10.698;2023-06-14T05:26:16;3.77;;;3.47;;
20865;SDS011;10593;48.398;10.698;2023-06-14T05:28:41;3.70;;;3.40;;
20865;SDS011;10593;48.398;10.698;2023-06-14T05:31:07;3.63;;;3.33;;
20865;SDS011;10593;48.398;10.698;2023-06-14T05:33:33;3.60;;;3.30;;
20865;SDS011;10593;48.398;10.698;2023-06-14T05:35:58;3.50;;;3.20;;
20865;SDS011;10593;48.398;10.698;2023-06-14T05:38:24;4.27;;;3.27;;
20865;SDS011;10593;48.398;10.698;2023-06-14T05:40:50;3.33;;;3.03;;
20865;SDS011;10593;48.398;10.698;2023-06-14T05:43:16;3.73;;;3.20;;
20865;SDS011;10593;48.398;10.698;2023-06-14T05:45:41;3.07;;;2.83;;
20865;SDS011;10593;48.398;10.698;2023-06-14T05:48:07;3.77;;;3.20;;
20865;SDS011;10593;48.398;10.698;2023-06-14T05:50:33;3.33;;;2.97;;
20865;SDS011;10593;48.398;10.698;2023-06-14T05:52:58;3.60;;;3.23;;
20865;SDS011;10593;48.398;10.698;2023-06-14T05:55:24;3.07;;;2.77;;
20865;SDS011;10593;48.398;10.698;2023-06-14T05:57:50;3.00;;;2.80;;
20865;SDS011;10593;48.398;10.698;2023-06-14T06:00:16;2.90;;;2.70;;
20865;SDS011;10593;48.398;10.698;2023-06-14T06:02:43;2.70;;;2.50;;
20865;SDS011;10593;48.398;10.698;2023-06-14T06:05:10;2.60;;;2.40;;
20865;SDS011;10593;48.398;10.698;2023-06-14T06:07:37;2.70;;;2.50;;
20865;SDS011;10593;48.398;10.698;2023-06-14T06:10:04;2.47;;;2.30;;
20865;SDS011;10593;48.398;10.698;2023-06-14T06:12:31;2.70;;;2.50;;
20865;SDS011;10593;48.398;10.698;2023-06-14T06:14:58;2.97;;;2.50;;
20865;SDS011;10593;48.398;10.698;2023-06-14T06:17:24;2.70;;;2.50;;
20865;SDS011;10593;48.398;10.698;2023-06-14T06:19:51;2.70;;;2.50;;
20865;SDS011;10593;48.398;10.698;2023-06-14T06:22:16;3.83;;;2.30;;
20865;SDS011;10593;48.398;10.698;2023-06-14T06:24:42;2.93;;;2.73;;
20865;SDS011;10593;48.398;10.698;2023-06-14T06:27:08;3.17;;;2.63;;
20865;SDS011;10593;48.398;10.698;2023-06-14T06:29:34;2.90;;;2.70;;
20865;SDS011;10593;48.398;10.698;2023-06-14T06:32:00;4.70;;;2.53;;
20865;SDS011;10593;48.398;10.698;2023-06-14T06:34:26;2.50;;;2.30;;
20865;SDS011;10593;48.398;10.698;2023-06-14T06:36:53;4.37;;;2.90;;
20865;SDS011;10593;48.398;10.698;2023-06-14T06:39:18;3.63;;;2.50;;
20865;SDS011;10593;48.398;10.698;2023-06-14T06:41:44;2.80;;;2.60;;
20865;SDS011;10593;48.398;10.698;2023-06-14T06:44:10;2.50;;;2.33;;
20865;SDS011;10593;48.398;10.698;2023-06-14T06:46:35;2.90;;;2.67;;
20865;SDS011;10593;48.398;10.698;2023-06-14T06:49:06;12.80;;;2.50;;
20865;SDS011;10593;48.398;10.698;2023-06-14T06:51:32;3.77;;;2.70;;
20865;SDS011;10593;48.398;10.698;2023-06-14T06:54:01;3.73;;;2.90;;
20865;SDS011;10593;48.398;10.698;2023-06-14T06:56:27;2.97;;;2.67;;
20865;SDS011;10593;48.398;10.698;2023-06-14T06:58:53;2.97;;;2.67;;
20865;SDS011;10593;48.398;10.698;2023-06-14T07:01:19;3.13;;;2.80;;
20865;SDS011;10593;48.398;10.698;2023-06-14T07:03:45;2.80;;;2.60;;
20865;SDS011;10593;48.398;10.698;2023-06-14T07:06:11;7.57;;;3.30;;
20865;SDS011;10593;48.398;10.698;2023-06-14T07:08:37;2.33;;;2.13;;
20865;SDS011;10593;48.398;10.698;2023-06-14T07:11:03;6.00;;;3.33;;
20865;SDS011;10593;48.398;10.698;2023-06-14T07:13:30;2.83;;;2.63;;
20865;SDS011;10593;48.398;10.698;2023-06-14T07:15:57;3.00;;;2.50;;
20865;SDS011;10593;48.398;10.698;2023-06-14T07:18:25;2.77;;;2.57;;
20865;SDS011;10593;48.398;10.698;2023-06-14T07:20:52;3.10;;;2.20;;
20865;SDS011;10593;48.398;10.698;2023-06-14T07:23:19;2.93;;;2.73;;
20865;SDS011;10593;48.398;10.698;2023-06-14T07:25:45;3.80;;;2.73;;
20865;SDS011;10593;48.398;10.698;2023-06-14T07:28:11;2.77;;;2.23;;
20865;SDS011;10593;48.398;10.698;2023-06-14T07:30:37;2.67;;;2.47;;
20865;SDS011;10593;48.398;10.698;2023-06-14T07:33:03;2.70;;;2.50;;
20865;SDS011;10593;48.398;10.698;2023-06-14T07:35:28;2.53;;;2.33;;
20865;SDS011;10593;48.398;10.698;2023-06-14T07:37:54;3.03;;;2.60;;
20865;SDS011;10593;48.398;10.698;2023-06-14T07:40:20;2.50;;;2.17;;
20865;SDS011;10593;48.398;10.698;2023-06-14T07:42:46;2.47;;;2.20;;
20865;SDS011;10593;48.398;10.698;2023-06-14T07:45:13;2.80;;;2.57;;
20865;SDS011;10593;48.398;10.698;2023-06-14T07:47:39;5.27;;;2.60;;
20865;SDS011;10593;48.398;10.698;2023-06-14T07:50:05;2.87;;;2.67;;
20865;SDS011;10593;48.398;10.698;2023-06-14T07:52:31;3.40;;;2.40;;
20865;SDS011;10593;48.398;10.698;2023-06-14T07:54:57;2.10;;;2.00;;
20865;SDS011;10593;48.398;10.698;2023-06-14T07:57:23;3.97;;;2.47;;
20865;SDS011;10593;48.398;10.698;2023-06-14T07:59:49;2.17;;;2.07;;
20865;SDS011;10593;48.398;10.698;2023-06-14T08:02:15;2.97;;;2.20;;
20865;SDS011;10593;48.398;10.698;2023-06-14T08:04:41;2.37;;;2.20;;
20865;SDS011;10593;48.398;10.698;2023-06-14T08:07:07;2.80;;;2.30;;
20865;SDS011;10593;48.398;10.698;2023-06-14T08:09:33;2.43;;;2.23;;
20865;SDS011;10593;48.398;10.698;2023-06-14T08:12:02;2.37;;;2.27;;
20865;SDS011;10593;48.398;10.698;2023-06-14T08:14:32;2.33;;;2.13;;
20865;SDS011;10593;48.398;10.698;2023-06-14T08:16:58;2.50;;;2.30;;
20865;SDS011;10593;48.398;10.698;2023-06-14T08:19:24;2.97;;;2.20;;
20865;SDS011;10593;48.398;10.698;2023-06-14T08:21:50;3.10;;;2.50;;
20865;SDS011;10593;48.398;10.698;2023-06-14T08:24:16;4.53;;;2.13;;
20865;SDS011;10593;48.398;10.698;2023-06-14T08:26:42;2.27;;;2.17;;
20865;SDS011;10593;48.398;10.698;2023-06-14T08:29:07;5.60;;;2.30;;
20865;SDS011;10593;48.398;10.698;2023-06-14T08:31:33;2.20;;;2.00;;
20865;SDS011;10593;48.398;10.698;2023-06-14T08:33:59;4.50;;;2.60;;
20865;SDS011;10593;48.398;10.698;2023-06-14T08:36:25;2.80;;;2.00;;
20865;SDS011;10593;48.398;10.698;2023-06-14T08:38:51;2.63;;;2.40;;
20865;SDS011;10593;48.398;10.698;2023-06-14T08:41:20;3.77;;;2.60;;
20865;SDS011;10593;48.398;10.698;2023-06-14T08:43:50;3.00;;;2.37;;
20865;SDS011;10593;48.398;10.698;2023-06-14T08:46:17;2.70;;;2.50;;
20865;SDS011;10593;48.398;10.698;2023-06-14T08:48:46;2.90;;;2.27;;
20865;SDS011;10593;48.398;10.698;2023-06-14T08:51:14;2.57;;;2.37;;
20865;SDS011;10593;48.398;10.698;2023-06-14T08:53:44;4.67;;;2.60;;
20865;SDS011;10593;48.398;10.698;2023-06-14T08:56:10;2.63;;;2.10;;
20865;SDS011;10593;48.398;10.698;2023-06-14T08:58:44;2.50;;;2.30;;
20865;SDS011;10593;48.398;10.698;2023-06-14T09:01:13;3.77;;;2.40;;
20865;SDS011;10593;48.398;10.698;2023-06-14T09:03:43;3.43;;;2.83;;
20865;SDS011;10593;48.398;10.698;2023-06-14T09:06:09;2.60;;;2.40;;
20865;SDS011;10593;48.398;10.698;2023-06-14T09:08:42;1.90;;;1.80;;
20865;SDS011;10593;48.398;10.698;2023-06-14T09:11:12;2.93;;;2.10;;
20865;SDS011;10593;48.398;10.698;2023-06-14T09:13:40;3.23;;;2.63;;
20865;SDS011;10593;48.398;10.698;2023-06-14T09:16:07;3.23;;;2.10;;
20865;SDS011;10593;48.398;10.698;2023-06-14T09:21:07;1.90;;;1.80;;
20865;SDS011;10593;48.398;10.698;2023-06-14T09:23:36;1.87;;;1.77;;
20865;SDS011;10593;48.398;10.698;2023-06-14T09:26:21;2.70;;;2.20;;
20865;SDS011;10593;48.398;10.698;2023-06-14T09:28:48;3.20;;;2.17;;
20865;SDS011;10593;48.398;10.698;2023-06-14T09:31:18;2.00;;;1.90;;
20865;SDS011;10593;48.398;10.698;2023-06-14T09:33:45;2.33;;;2.10;;
20865;SDS011;10593;48.398;10.698;2023-06-14T09:36:23;2.60;;;2.40;;
20865;SDS011;10593;48.398;10.698;2023-06-14T09:38:55;2.30;;;2.20;;
20865;SDS011;10593;48.398;10.698;2023-06-14T09:41:36;2.33;;;2.13;;
20865;SDS011;10593;48.398;10.698;2023-06-14T09:44:05;2.00;;;1.90;;
20865;SDS011;10593;48.398;10.698;2023-06-14T09:46:33;2.00;;;1.80;;
20865;SDS011;10593;48.398;10.698;2023-06-14T09:49:01;2.13;;;2.03;;
20865;SDS011;10593;48.398;10.698;2023-06-14T09:51:29;2.20;;;2.10;;
20865;SDS011;10593;48.398;10.698;2023-06-14T09:54:00;1.80;;;1.70;;
20865;SDS011;10593;48.398;10.698;2023-06-14T09:56:30;3.23;;;1.90;;
20865;SDS011;10593;48.398;10.698;2023-06-14T09:58:59;2.33;;;2.13;;
20865;SDS011;10593;48.398;10.698;2023-06-14T10:01:30;2.50;;;2.30;;
20865;SDS011;10593;48.398;10.698;2023-06-14T10:04:02;2.87;;;1.93;;
20865;SDS011;10593;48.398;10.698;2023-06-14T10:06:30;2.00;;;1.90;;
20865;SDS011;10593;48.398;10.698;2023-06-14T10:08:59;3.00;;;2.30;;
20865;SDS011;10593;48.398;10.698;2023-06-14T10:11:26;3.03;;;2.07;;
20865;SDS011;10593;48.398;10.698;2023-06-14T10:13:53;2.30;;;2.10;;
20865;SDS011;10593;48.398;10.698;2023-06-14T10:16:22;2.43;;;2.23;;
20865;SDS011;10593;48.398;10.698;2023-06-14T10:19:00;3.20;;;2.27;;
20865;SDS011;10593;48.398;10.698;2023-06-14T10:22:18;2.23;;;1.97;;
20865;SDS011;10593;48.398;10.698;2023-06-14T10:24:54;2.17;;;2.07;;
20865;SDS011;10593;48.398;10.698;2023-06-14T10:27:20;2.30;;;2.10;;
20865;SDS011;10593;48.398;10.698;2023-06-14T10:32:27;1.90;;;1.80;;
20865;SDS011;10593;48.398;10.698;2023-06-14T10:34:54;2.40;;;2.13;;
20865;SDS011;10593;48.398;10.698;2023-06-14T10:37:31;2.80;;;2.10;;
20865;SDS011;10593;48.398;10.698;2023-06-14T10:39:57;4.37;;;2.40;;
20865;SDS011;10593;48.398;10.698;2023-06-14T10:42:27;2.20;;;2.10;;
20865;SDS011;10593;48.398;10.698;2023-06-14T10:44:57;1.90;;;1.80;;
20865;SDS011;10593;48.398;10.698;2023-06-14T10:50:03;2.27;;;2.17;;
20865;SDS011;10593;48.398;10.698;2023-06-14T10:52:39;2.03;;;1.93;;
20865;SDS011;10593;48.398;10.698;2023-06-14T10:55:10;4.23;;;2.00;;
20865;SDS011;10593;48.398;10.698;2023-06-14T10:57:49;2.00;;;1.70;;
20865;SDS011;10593;48.398;10.698;2023-06-14T11:00:24;2.00;;;1.90;;
20865;SDS011;10593;48.398;10.698;2023-06-14T11:06:15;2.20;;;2.10;;
20865;SDS011;10593;48.398;10.698;2023-06-14T11:08:58;2.50;;;2.30;;
20865;SDS011;10593;48.398;10.698;2023-06-14T11:11:44;2.33;;;2.13;;
20865;SDS011;10593;48.398;10.698;2023-06-14T11:14:12;1.83;;;1.73;;
20865;SDS011;10593;48.398;10.698;2023-06-14T11:16:37;2.00;;;1.90;;
20865;SDS011;10593;48.398;10.698;2023-06-14T11:19:03;3.67;;;2.20;;
20865;SDS011;10593;48.398;10.698;2023-06-14T11:21:29;2.33;;;1.90;;
20865;SDS011;10593;48.398;10.698;2023-06-14T11:23:58;2.77;;;2.00;;
20865;SDS011;10593;48.398;10.698;2023-06-14T11:26:27;2.10;;;2.00;;
20865;SDS011;10593;48.398;10.698;2023-06-14T11:28:56;1.93;;;1.83;;
20865;SDS011;10593;48.398;10.698;2023-06-14T11:31:26;2.23;;;1.90;;
20865;SDS011;10593;48.398;10.698;2023-06-14T11:33:53;2.20;;;2.00;;
20865;SDS011;10593;48.398;10.698;2023-06-14T11:36:22;2.40;;;2.20;;
20865;SDS011;10593;48.398;10.698;2023-06-14T11:38:59;1.93;;;1.83;;
20865;SDS011;10593;48.398;10.698;2023-06-14T11:41:37;2.30;;;2.10;;
20865;SDS011;10593;48.398;10.698;2023-06-14T11:44:10;2.03;;;1.93;;
20865;SDS011;10593;48.398;10.698;2023-06-14T11:46:37;2.07;;;1.97;;
20865;SDS011;10593;48.398;10.698;2023-06-14T11:49:03;2.80;;;2.00;;
20865;SDS011;10593;48.398;10.698;2023-06-14T11:51:35;4.53;;;2.27;;
20865;SDS011;10593;48.398;10.698;2023-06-14T11:54:02;2.23;;;2.07;;
20865;SDS011;10593;48.398;10.698;2023-06-14T11:56:29;2.47;;;2.27;;
20865;SDS011;10593;48.398;10.698;2023-06-14T11:58:56;2.33;;;2.13;;
20865;SDS011;10593;48.398;10.698;2023-06-14T12:01:23;2.80;;;2.27;;
20865;SDS011;10593;48.398;10.698;2023-06-14T12:03:52;1.90;;;1.80;;
20865;SDS011;10593;48.398;10.698;2023-06-14T12:06:30;1.93;;;1.83;;
20865;SDS011;10593;48.398;10.698;2023-06-14T12:09:03;2.47;;;2.27;;
20865;SDS011;10593;48.398;10.698;2023-06-14T12:11:32;2.13;;;1.87;;
20865;SDS011;10593;48.398;10.698;2023-06-14T12:14:00;2.70;;;2.13;;
20865;SDS011;10593;48.398;10.698;2023-06-14T12:16:34;2.03;;;1.93;;
20865;SDS011;10593;48.398;10.698;2023-06-14T12:19:12;2.53;;;2.33;;
20865;SDS011;10593;48.398;10.698;2023-06-14T12:21:40;2.20;;;1.90;;
20865;SDS011;10593;48.398;10.698;2023-06-14T12:24:07;2.23;;;2.10;;
20865;SDS011;10593;48.398;10.698;2023-06-14T12:26:33;2.67;;;2.17;;
20865;SDS011;10593;48.398;10.698;2023-06-14T12:29:05;2.10;;;2.00;;
20865;SDS011;10593;48.398;10.698;2023-06-14T12:31:32;2.23;;;2.03;;
20865;SDS011;10593;48.398;10.698;2023-06-14T12:33:58;8.40;;;2.10;;
20865;SDS011;10593;48.398;10.698;2023-06-14T12:36:24;3.03;;;2.00;;
20865;SDS011;10593;48.398;10.698;2023-06-14T12:38:50;4.43;;;2.20;;
20865;SDS011;10593;48.398;10.698;2023-06-14T12:41:19;2.10;;;1.90;;
20865;SDS011;10593;48.398;10.698;2023-06-14T12:43:47;2.13;;;1.97;;
20865;SDS011;10593;48.398;10.698;2023-06-14T12:46:13;2.03;;;1.93;;
20865;SDS011;10593;48.398;10.698;2023-06-14T12:48:38;3.20;;;2.10;;
20865;SDS011;10593;48.398;10.698;2023-06-14T12:51:04;2.40;;;2.30;;
20865;SDS011;10593;48.398;10.698;2023-06-14T12:53:30;4.83;;;2.20;;
20865;SDS011;10593;48.398;10.698;2023-06-14T12:55:55;2.17;;;1.73;;
20865;SDS011;10593;48.398;10.698;2023-06-14T12:58:21;3.27;;;2.23;;
20865;SDS011;10593;48.398;10.698;2023-06-14T13:00:48;2.37;;;2.23;;
20865;SDS011;10593;48.398;10.698;2023-06-14T13:03:14;2.60;;;2.00;;
20865;SDS011;10593;48.398;10.698;2023-06-14T13:05:40;2.23;;;2.03;;
20865;SDS011;10593;48.398;10.698;2023-06-14T13:08:07;2.63;;;2.43;;
20865;SDS011;10593;48.398;10.698;2023-06-14T13:10:33;3.23;;;2.00;;
20865;SDS011;10593;48.398;10.698;2023-06-14T13:12:59;2.13;;;2.00;;
20865;SDS011;10593;48.398;10.698;2023-06-14T13:15:25;3.00;;;1.90;;
20865;SDS011;10593;48.398;10.698;2023-06-14T13:17:52;2.00;;;1.90;;
20865;SDS011;10593;48.398;10.698;2023-06-14T13:20:18;2.13;;;1.80;;
20865;SDS011;10593;48.398;10.698;2023-06-14T13:22:43;3.63;;;1.93;;
20865;SDS011;10593;48.398;10.698;2023-06-14T13:25:09;2.40;;;2.20;;
20865;SDS011;10593;48.398;10.698;2023-06-14T13:27:35;1.90;;;1.80;;
20865;SDS011;10593;48.398;10.698;2023-06-14T13:30:00;2.17;;;2.07;;
20865;SDS011;10593;48.398;10.698;2023-06-14T13:32:26;2.47;;;2.27;;
20865;SDS011;10593;48.398;10.698;2023-06-14T13:34:53;2.00;;;1.90;;
20865;SDS011;10593;48.398;10.698;2023-06-14T13:37:18;4.80;;;2.20;;
20865;SDS011;10593;48.398;10.698;2023-06-14T13:39:44;2.47;;;2.03;;
20865;SDS011;10593;48.398;10.698;2023-06-14T13:42:10;1.97;;;1.87;;
20865;SDS011;10593;48.398;10.698;2023-06-14T13:44:36;2.43;;;1.87;;
20865;SDS011;10593;48.398;10.698;2023-06-14T13:47:02;2.40;;;2.00;;
20865;SDS011;10593;48.398;10.698;2023-06-14T13:49:28;1.97;;;1.87;;
20865;SDS011;10593;48.398;10.698;2023-06-14T13:51:53;2.13;;;2.03;;
20865;SDS011;10593;48.398;10.698;2023-06-14T13:54:19;2.63;;;1.90;;
20865;SDS011;10593;48.398;10.698;2023-06-14T13:56:46;2.10;;;1.83;;
20865;SDS011;10593;48.398;10.698;2023-06-14T13:59:12;2.07;;;1.97;;
20865;SDS011;10593;48.398;10.698;2023-06-14T14:01:38;3.93;;;2.10;;
20865;SDS011;10593;48.398;10.698;2023-06-14T14:04:04;1.83;;;1.73;;
20865;SDS011;10593;48.398;10.698;2023-06-14T14:06:30;2.60;;;2.00;;
20865;SDS011;10593;48.398;10.698;2023-06-14T14:08:56;1.87;;;1.77;;
20865;SDS011;10593;48.398;10.698;2023-06-14T14:11:23;2.30;;;2.13;;
20865;SDS011;10593;48.398;10.698;2023-06-14T14:13:48;2.00;;;1.90;;
20865;SDS011;10593;48.398;10.698;2023-06-14T14:16:14;2.23;;;2.03;;
20865;SDS011;10593;48.398;10.698;2023-06-14T14:18:40;2.33;;;2.00;;
20865;SDS011;10593;48.398;10.698;2023-06-14T14:21:05;2.20;;;2.00;;
20865;SDS011;10593;48.398;10.698;2023-06-14T14:23:31;2.00;;;1.90;;
20865;SDS011;10593;48.398;10.698;2023-06-14T14:25:57;2.23;;;1.73;;
20865;SDS011;10593;48.398;10.698;2023-06-14T14:28:23;3.93;;;1.93;;
20865;SDS011;10593;48.398;10.698;2023-06-14T14:30:48;2.23;;;2.07;;
20865;SDS011;10593;48.398;10.698;2023-06-14T14:33:14;1.70;;;1.60;;
20865;SDS011;10593;48.398;10.698;2023-06-14T14:35:42;2.60;;;2.27;;
20865;SDS011;10593;48.398;10.698;2023-06-14T14:38:10;2.70;;;2.00;;
20865;SDS011;10593;48.398;10.698;2023-06-14T14:40:38;2.37;;;2.17;;
20865;SDS011;10593;48.398;10.698;2023-06-14T14:43:05;2.53;;;2.20;;
20865;SDS011;10593;48.398;10.698;2023-06-14T14:45:31;2.80;;;2.00;;
20865;SDS011;10593;48.398;10.698;2023-06-14T14:47:56;3.53;;;2.10;;
20865;SDS011;10593;48.398;10.698;2023-06-14T14:50:22;2.77;;;2.00;;
20865;SDS011;10593;48.398;10.698;2023-06-14T14:52:49;2.30;;;2.00;;